Aérodrome :
LOGIN :

S'inscrire | Disclaimer

   EN    FR    IT 

 










Légende :    VFR   VFR Marginal   IFR   IFR Intensif   IFR Très Intensif
Visi : 
Plafond : 
>= 8 km
>= 3000ft
5 à 8 km
1000 à 3000 ft
1500m à 5 km
500 à 1000 ft
800 à 1500m
200 à 500 ft
< 800m
< 200 ft
Symboles :   Orages  Brouillard  Fortes neiges  Fortes précipitations  Vent > 20 kt
SIGMETs :   Divers  Orages  Givrage  Turbulence  Onde Orograph.  Cendres Volcan.







- Altitude de l'aérodrome : 128 ft


ETND - Diepholz

METARs EXPIRÉS :
  • 201320Z 23011KT 9999 -SHRA BKN033TCU SCT080 22/13 Q1011 BLU
  • 201220Z 22009KT 9999 VCSH BKN030TCU SCT080 23/15 Q1011 BLU

TAF AMD TAF ETND
Valide du 20 à 13h jusqu'au 20 à 20h UTC


201325Z 2013/2020 24008KT 9999 NSW SCT020 BKN050
TEMPO 2013/2021 26012G22KT 4000 SHRA BKN010 BKN030CB
PROB30 2013/2018 VRB15G30KT 2000 TSRA BKN005 BKN020CB CANCEL BY ETGL
Pas de NOTAMs connus pour ce terrain.



MET'MAP, la Météo Aéronautique d'un coup d'oeil ! - Copyright ORBIFLY Décembre 2007 - Disclaimer

ORBIFLY MET'MAP TEAM :

Programmation & Développement : Alexandra Zaïnal
Conception & Développement : Baudouin d'Aumeries
Co-Programmation & Développement : Marc-Olivier Méhu
Soutien technique & logistique : Manuel Goepfert

Contact : metmap@orbifly.com




SOURCES & CREDITS :

   NOAA